Time;durP1;ratioP1;P1;durP2;ratioP2;P2;SDS_P1;SDS_P2;PMS_P1;PMS_P2;Temp;Humidity;BMP_temperature;BMP_pressure;BME280_temperature;BME280_humidity;BME280_pressure;Samples;Min_cycle;Max_cycle;Signal;HPM_P1;HPM_P2
2022/05/24 00:01:44;;;;;;;;;4.00;4.00;;;;;13.37;100.00;100206.44;6312449;22;45334;-82
2022/05/24 00:04:09;;;;;;;;;6.00;2.75;;;;;13.31;100.00;100206.13;6311176;22;44681;-82
2022/05/24 00:06:35;;;;;;;;;2.50;2.50;;;;;13.28;100.00;100204.56;6309664;22;45322;-81
2022/05/24 00:09:00;;;;;;;;;5.50;3.50;;;;;13.32;100.00;100200.66;6280429;22;45124;-83
2022/05/24 00:11:26;;;;;;;;;1.75;1.75;;;;;13.33;100.00;100205.00;6306192;22;45410;-81
2022/05/24 00:13:51;;;;;;;;;3.00;3.00;;;;;13.32;100.00;100210.50;6310341;22;45244;-83
2022/05/24 00:16:17;;;;;;;;;3.75;3.75;;;;;13.31;100.00;100231.00;6314508;22;45170;-82
2022/05/24 00:18:44;;;;;;;;;4.00;2.20;;;;;13.24;100.00;100232.47;6312482;22;44724;-81
2022/05/24 00:21:09;;;;;;;;;2.20;2.20;;;;;13.21;100.00;100253.22;6310912;22;45024;-83
2022/05/24 00:23:35;;;;;;;;;3.25;3.25;;;;;13.11;100.00;100240.69;6284535;22;45147;-82
2022/05/24 00:26:05;;;;;;;;;4.50;4.50;;;;;13.19;100.00;100257.84;6314667;22;45091;-82
2022/05/24 00:28:32;;;;;;;;;1.60;1.60;;;;;13.22;100.00;100247.78;6312074;22;44882;-81
2022/05/24 00:30:58;;;;;;;;;4.60;3.00;;;;;13.22;100.00;100228.28;6315783;22;45264;-84
2022/05/24 00:33:25;;;;;;;;;3.50;2.00;;;;;13.17;100.00;100228.63;6311361;22;44856;-83
2022/05/24 00:35:51;;;;;;;;;5.00;4.00;;;;;13.11;100.00;100221.16;6315118;22;44716;-82
2022/05/24 00:38:39;;;;;;;;;4.50;2.75;;;;;13.11;100.00;100210.50;6338775;22;44815;-83
2022/05/24 00:41:25;;;;;;;;;3.40;1.20;;;;;13.04;100.00;100190.66;6318875;22;45158;-82
2022/05/24 00:44:04;;;;;;;;;2.40;1.80;;;;;12.95;100.00;100184.28;6316614;22;44704;-83
2022/05/24 00:46:56;;;;;;;;;5.80;3.00;;;;;12.90;100.00;100207.81;6313619;22;44810;-83
2022/05/24 00:49:51;;;;;;;;;3.00;3.00;;;;;12.94;100.00;100195.09;6312440;22;44704;-81
2022/05/24 00:52:27;;;;;;;;;3.40;3.40;;;;;12.91;100.00;100203.34;6310017;22;45241;-82
2022/05/24 00:54:55;;;;;;;;;3.80;3.80;;;;;12.86;100.00;100193.94;6280109;22;45330;-83
2022/05/24 00:57:37;;;;;;;;;1.40;1.40;;;;;12.81;100.00;100197.94;6305919;22;45360;-82
2022/05/24 01:00:20;;;;;;;;;4.20;2.80;;;;;12.78;100.00;100206.22;6309073;22;44802;-82
2022/05/24 01:02:46;;;;;;;;;1.40;1.40;;;;;12.76;100.00;100205.50;6283680;22;46549;-83
2022/05/24 01:05:16;;;;;;;;;3.50;2.00;;;;;12.73;100.00;100206.59;6280857;22;45196;-81
2022/05/24 01:07:41;;;;;;;;;4.60;3.20;;;;;12.76;100.00;100211.66;6306870;22;44747;-82
2022/05/24 01:10:16;;;;;;;;;3.50;2.50;;;;;12.78;100.00;100217.72;6279906;22;45278;-81
2022/05/24 01:12:49;;;;;;;;;1.60;0.60;;;;;12.78;100.00;100224.88;6305547;22;45261;-81
2022/05/24 01:15:16;;;;;;;;;2.20;2.20;;;;;12.73;100.00;100230.59;6305776;22;45318;-83
2022/05/24 01:17:43;;;;;;;;;1.60;1.60;;;;;12.75;100.00;100228.63;6311127;22;44717;-81
2022/05/24 01:20:09;;;;;;;;;2.25;2.25;;;;;12.77;100.00;100229.38;6311349;22;45345;-81
2022/05/24 01:23:02;;;;;;;;;1.80;1.80;;;;;12.78;100.00;100223.06;6260402;22;46713;-82
2022/05/24 01:25:36;;;;;;;;;2.80;2.60;;;;;12.80;100.00;100238.91;6306848;22;45349;-82
2022/05/24 01:28:08;;;;;;;;;3.80;2.20;;;;;12.76;100.00;100229.47;6280401;22;45264;-82
2022/05/24 01:30:34;;;;;;;;;0.50;0.50;;;;;12.77;100.00;100234.69;6309350;22;45234;-82
2022/05/24 01:38:27;;;;;;;;;1.60;1.60;;;;;12.72;100.00;100230.75;6283880;22;45160;-80
2022/05/24 01:40:55;;;;;;;;;1.75;1.00;;;;;12.76;100.00;100227.66;6308012;22;44782;-81
2022/05/24 01:43:23;;;;;;;;;1.60;0.60;;;;;12.78;100.00;100230.22;6314037;22;45031;-81
2022/05/24 01:45:52;;;;;;;;;4.20;1.60;;;;;12.76;100.00;100217.00;6315282;22;45427;-80
2022/05/24 01:48:23;;;;;;;;;1.00;1.00;;;;;12.73;100.00;100219.09;6286724;22;44759;-80
2022/05/24 01:50:53;;;;;;;;;2.00;2.00;;;;;12.70;100.00;100225.50;6314510;22;45308;-81
2022/05/24 01:53:33;;;;;;;;;0.60;0.60;;;;;12.68;100.00;100237.28;6310829;22;45265;-81
2022/05/24 01:56:00;;;;;;;;;5.00;1.60;;;;;12.67;100.00;100231.13;6280613;22;45226;-82
2022/05/24 01:58:31;;;;;;;;;1.00;1.00;;;;;12.59;100.00;100234.41;6308837;22;44651;-81
2022/05/24 02:01:03;;;;;;;;;2.80;2.80;;;;;12.57;100.00;100246.16;6309598;22;44713;-81
2022/05/24 02:03:28;;;;;;;;;3.60;2.00;;;;;12.60;100.00;100246.75;6310455;22;45026;-81
2022/05/24 02:05:54;;;;;;;;;0.50;0.50;;;;;12.53;100.00;100250.06;6308752;22;44724;-83
2022/05/24 02:08:20;;;;;;;;;0.00;0.00;;;;;12.54;100.00;100249.94;6312143;22;45323;-82
2022/05/24 02:10:52;;;;;;;;;2.40;1.40;;;;;12.52;100.00;100243.03;6316164;22;44785;-81
2022/05/24 02:13:26;;;;;;;;;1.40;1.40;;;;;12.49;100.00;100245.97;6309901;22;45085;-82
2022/05/24 02:15:54;;;;;;;;;2.20;1.60;;;;;12.43;100.00;100239.34;6279197;22;44681;-82
2022/05/24 02:18:23;;;;;;;;;2.20;0.60;;;;;12.45;100.00;100237.38;6307593;22;44696;-80
2022/05/24 02:20:48;;;;;;;;;1.20;1.20;;;;;12.40;100.00;100236.91;6306506;22;45430;-83
2022/05/24 02:23:16;;;;;;;;;0.75;0.75;;;;;12.34;100.00;100242.75;6306204;22;45518;-81
2022/05/24 02:25:52;;;;;;;;;2.00;2.00;;;;;12.35;100.00;100252.44;6312302;22;45163;-82
2022/05/24 02:28:20;;;;;;;;;1.60;1.00;;;;;12.31;100.00;100243.84;6284869;22;44868;-81
2022/05/24 02:30:52;;;;;;;;;3.20;0.00;;;;;12.24;100.00;100237.34;6309432;22;45314;-81
2022/05/24 02:33:19;;;;;;;;;1.60;1.60;;;;;12.21;100.00;100239.41;6312724;22;46807;-81
2022/05/24 02:35:45;;;;;;;;;0.80;0.80;;;;;12.24;100.00;100241.81;6313659;22;45337;-83
2022/05/24 02:38:10;;;;;;;;;2.00;1.00;;;;;12.22;100.00;100244.59;6283161;22;45848;-82
2022/05/24 02:43:20;;;;;;;;;1.40;1.40;;;;;12.22;100.00;100259.72;6310324;22;45329;-83
2022/05/24 02:45:46;;;;;;;;;2.00;1.00;;;;;12.19;100.00;100258.16;6307468;22;44740;-84
2022/05/24 02:48:11;;;;;;;;;1.50;1.50;;;;;12.22;100.00;100249.06;6282990;22;45357;-82
2022/05/24 02:50:37;;;;;;;;;0.40;0.40;;;;;12.21;100.00;100248.22;6287790;22;44815;-84
2022/05/24 02:53:03;;;;;;;;;2.25;1.50;;;;;12.22;100.00;100254.41;6314951;22;45091;-82
2022/05/24 02:55:30;;;;;;;;;3.00;1.75;;;;;12.22;100.00;100263.22;6310663;22;44588;-81
2022/05/24 02:57:55;;;;;;;;;1.80;1.80;;;;;12.25;100.00;100273.66;6315202;22;44808;-83
2022/05/24 03:00:23;;;;;;;;;5.50;2.00;;;;;12.27;100.00;100269.03;6312149;22;45063;-83
2022/05/24 03:02:51;;;;;;;;;1.80;1.80;;;;;12.20;100.00;100267.84;6311363;22;46297;-85
2022/05/24 03:05:17;;;;;;;;;3.80;2.40;;;;;12.13;100.00;100268.47;6308219;22;44815;-83
2022/05/24 03:10:28;;;;;;;;;3.20;2.20;;;;;12.16;100.00;100271.72;6306687;22;45389;-82
2022/05/24 03:15:39;;;;;;;;;2.00;0.80;;;;;12.17;100.00;100278.75;6307882;22;44697;-82
2022/05/24 03:18:06;;;;;;;;;1.20;1.20;;;;;12.15;100.00;100287.84;6306990;22;44714;-80
2022/05/24 03:20:31;;;;;;;;;1.60;1.00;;;;;12.14;100.00;100284.34;6280342;22;44999;-84
2022/05/24 03:22:57;;;;;;;;;2.00;2.00;;;;;12.14;100.00;100287.00;6304931;22;46330;-81
2022/05/24 03:25:22;;;;;;;;;2.75;2.75;;;;;12.20;100.00;100289.16;6279125;22;45179;-82
2022/05/24 03:27:48;;;;;;;;;2.00;2.00;;;;;12.20;100.00;100293.63;6286662;22;44947;-83
2022/05/24 03:30:14;;;;;;;;;1.00;1.00;;;;;12.25;100.00;100296.78;6316823;22;44660;-81
2022/05/24 03:32:40;;;;;;;;;2.80;1.00;;;;;12.16;100.00;100301.03;6312521;22;45177;-82
2022/05/24 03:35:07;;;;;;;;;2.50;1.00;;;;;12.19;100.00;100311.44;6313399;22;44874;-81
2022/05/24 03:37:32;;;;;;;;;2.00;2.00;;;;;12.11;100.00;100311.19;6290457;22;44737;-82
2022/05/24 03:39:57;;;;;;;;;1.75;1.00;;;;;12.08;100.00;100306.94;6313405;22;45215;-83
2022/05/24 03:42:23;;;;;;;;;2.00;2.00;;;;;12.08;100.00;100314.94;6316633;22;45310;-82
2022/05/24 03:44:48;;;;;;;;;2.00;2.00;;;;;12.08;100.00;100303.44;6317258;22;45268;-83
2022/05/24 03:47:14;;;;;;;;;2.75;2.75;;;;;12.05;100.00;100309.03;6315044;22;45140;-81
2022/05/24 03:49:40;;;;;;;;;2.75;2.75;;;;;12.01;100.00;100319.06;6317096;22;44784;-83
2022/05/24 03:52:06;;;;;;;;;2.80;1.60;;;;;12.01;100.00;100324.41;6319188;22;45052;-82
2022/05/24 03:54:31;;;;;;;;;1.50;1.50;;;;;12.00;100.00;100333.34;6317973;22;44685;-81
2022/05/24 03:59:41;;;;;;;;;2.20;2.20;;;;;11.98;100.00;100351.25;6311254;22;44646;-83
2022/05/24 04:02:07;;;;;;;;;1.00;1.00;;;;;11.98;100.00;100342.41;6308297;22;45223;-81
2022/05/24 04:04:32;;;;;;;;;1.50;1.50;;;;;11.91;100.00;100349.22;6308155;22;45238;-82
2022/05/24 04:06:57;;;;;;;;;1.50;1.25;;;;;11.88;100.00;100344.97;6308213;22;45610;-84
2022/05/24 04:09:23;;;;;;;;;3.50;2.00;;;;;11.81;100.00;100338.41;6309065;22;45362;-84
2022/05/24 04:11:48;;;;;;;;;2.00;2.00;;;;;11.79;100.00;100354.47;6307402;22;46240;-82
2022/05/24 04:14:14;;;;;;;;;1.00;1.00;;;;;11.76;100.00;100353.88;6308647;22;45323;-84
2022/05/24 04:16:39;;;;;;;;;3.00;2.00;;;;;11.81;100.00;100357.88;6307239;22;44809;-83
2022/05/24 04:19:05;;;;;;;;;2.00;2.00;;;;;11.81;100.00;100363.19;6308955;22;44789;-82
2022/05/24 04:21:31;;;;;;;;;3.00;3.00;;;;;11.81;100.00;100360.53;6308872;22;45423;-84
2022/05/24 04:23:57;;;;;;;;;4.40;2.80;;;;;11.83;100.00;100355.13;6313456;22;44844;-83
2022/05/24 04:26:23;;;;;;;;;4.80;2.80;;;;;11.78;100.00;100351.94;6311262;22;45320;-82
2022/05/24 04:28:48;;;;;;;;;7.75;6.75;;;;;11.82;100.00;100356.94;6312498;22;44963;-83
2022/05/24 04:31:14;;;;;;;;;10.25;5.00;;;;;11.74;100.00;100361.97;6316242;22;45252;-85
2022/05/24 04:33:39;;;;;;;;;6.00;6.00;;;;;11.72;100.00;100361.25;6307845;22;45242;-83
2022/05/24 04:36:05;;;;;;;;;3.00;3.00;;;;;11.66;100.00;100361.75;6306571;22;44744;-84
2022/05/24 04:38:30;;;;;;;;;3.75;2.75;;;;;11.65;100.00;100378.66;6308237;22;45238;-83
2022/05/24 04:43:39;;;;;;;;;6.80;4.60;;;;;11.67;100.00;100381.22;6307498;22;44700;-84
2022/05/24 04:46:06;;;;;;;;;1.25;1.25;;;;;11.70;100.00;100384.50;6306662;22;45164;-85
2022/05/24 04:48:31;;;;;;;;;1.60;1.60;;;;;11.74;100.00;100380.59;6310022;22;45199;-84
2022/05/24 04:50:57;;;;;;;;;4.75;3.00;;;;;11.82;100.00;100393.34;6317685;22;45688;-83
2022/05/24 04:53:26;;;;;;;;;2.40;0.80;;;;;11.78;100.00;100391.88;6307536;22;44700;-82
2022/05/24 04:55:51;;;;;;;;;3.20;2.80;;;;;11.92;100.00;100394.31;6306871;22;45404;-84
2022/05/24 04:58:17;;;;;;;;;1.00;1.00;;;;;12.02;100.00;100383.81;6313121;22;45325;-83
2022/05/24 05:00:45;;;;;;;;;3.00;1.50;;;;;12.18;100.00;100394.94;6315671;22;45412;-82
2022/05/24 05:03:13;;;;;;;;;1.40;0.60;;;;;12.31;100.00;100401.00;6313775;22;45420;-84
2022/05/24 05:05:39;;;;;;;;;0.60;0.60;;;;;12.42;100.00;100391.28;6308007;22;45107;-84
2022/05/24 05:08:05;;;;;;;;;2.20;1.20;;;;;12.43;100.00;100401.84;6308473;22;45404;-83
2022/05/24 05:10:34;;;;;;;;;2.40;1.20;;;;;12.55;100.00;100392.84;6308545;22;45428;-84
2022/05/24 05:12:59;;;;;;;;;0.00;0.00;;;;;12.70;100.00;100395.25;6308367;22;44657;-83
2022/05/24 05:15:25;;;;;;;;;1.50;1.50;;;;;12.74;100.00;100400.19;6316891;22;44667;-84
2022/05/24 05:17:51;;;;;;;;;1.00;1.00;;;;;12.93;100.00;100402.22;6317265;22;45185;-83
2022/05/24 05:20:17;;;;;;;;;2.20;1.00;;;;;12.97;100.00;100401.00;6312387;22;45088;-83
2022/05/24 05:22:42;;;;;;;;;1.00;1.00;;;;;12.91;100.00;100406.84;6307261;22;45158;-85
2022/05/24 05:25:08;;;;;;;;;3.00;1.00;;;;;13.01;100.00;100407.78;6307585;22;45175;-85
2022/05/24 05:27:33;;;;;;;;;0.00;0.00;;;;;13.36;100.00;100415.53;6308796;22;45250;-84
2022/05/24 05:32:45;;;;;;;;;0.60;0.60;;;;;13.43;100.00;100418.53;6307682;22;45428;-87
2022/05/24 05:35:10;;;;;;;;;1.00;1.00;;;;;13.62;100.00;100420.50;6314647;22;45218;-86
2022/05/24 05:37:36;;;;;;;;;3.00;2.00;;;;;13.65;100.00;100422.91;6308425;22;44791;-86
2022/05/24 05:40:04;;;;;;;;;1.00;1.00;;;;;13.75;100.00;100422.97;6307671;22;45025;-85
2022/05/24 05:42:30;;;;;;;;;1.80;1.00;;;;;13.73;100.00;100432.91;6311758;22;45234;-87
2022/05/24 05:44:55;;;;;;;;;0.80;0.80;;;;;13.37;100.00;100432.38;6287146;22;44777;-87
2022/05/24 05:47:21;;;;;;;;;2.00;0.00;;;;;13.15;100.00;100440.44;6287321;22;44778;-87
2022/05/24 05:49:47;;;;;;;;;0.25;0.00;;;;;12.99;100.00;100448.84;6284385;22;45308;-85
2022/05/24 05:52:12;;;;;;;;;1.00;1.00;;;;;12.73;100.00;100443.81;6310560;22;45293;-87
2022/05/24 05:54:38;;;;;;;;;2.00;0.25;;;;;12.71;100.00;100448.41;6317493;22;44624;-84
2022/05/24 05:57:06;;;;;;;;;1.25;1.25;;;;;12.64;100.00;100454.38;6323524;22;45412;-85
2022/05/24 05:59:32;;;;;;;;;0.80;0.80;;;;;12.59;100.00;100462.75;6318230;22;45233;-87
2022/05/24 06:01:58;;;;;;;;;1.50;0.50;;;;;12.54;100.00;100463.09;6329244;22;45120;-90
2022/05/24 06:04:27;;;;;;;;;1.75;0.75;;;;;12.42;100.00;100468.53;6298998;22;44765;-90
2022/05/24 06:06:53;;;;;;;;;0.60;0.60;;;;;12.35;100.00;100466.38;6322022;22;45130;-89
2022/05/24 06:09:20;;;;;;;;;2.80;1.20;;;;;12.39;100.00;100469.66;6319880;22;45443;-88
2022/05/24 06:11:45;;;;;;;;;0.00;0.00;;;;;12.41;100.00;100470.38;6296804;22;45345;-89
2022/05/24 06:14:11;;;;;;;;;0.50;0.50;;;;;12.44;100.00;100477.28;6327778;22;44642;-87
2022/05/24 06:16:38;;;;;;;;;0.50;0.50;;;;;12.52;100.00;100480.16;6297259;22;45281;-87
2022/05/24 06:19:05;;;;;;;;;2.80;0.60;;;;;12.47;100.00;100479.69;6317806;22;44917;-88
2022/05/24 06:21:34;;;;;;;;;3.60;0.60;;;;;12.53;100.00;100480.06;6287863;22;45232;-88
2022/05/24 06:24:02;;;;;;;;;0.60;0.60;;;;;12.60;100.00;100478.59;6288833;22;44843;-90
2022/05/24 06:26:29;;;;;;;;;0.00;0.00;;;;;12.79;100.00;100493.13;6315870;22;45293;-87
2022/05/24 06:28:54;;;;;;;;;0.80;0.80;;;;;12.88;100.00;100495.06;6286658;22;46916;-87
2022/05/24 06:31:20;;;;;;;;;2.50;0.75;;;;;13.07;100.00;100497.09;6291848;22;44827;-88
2022/05/24 06:33:45;;;;;;;;;0.75;0.00;;;;;13.30;100.00;100498.75;6295423;22;45101;-88
2022/05/24 06:36:11;;;;;;;;;1.00;1.00;;;;;13.32;100.00;100488.78;6290477;22;45440;-87
2022/05/24 06:38:37;;;;;;;;;1.00;1.00;;;;;13.45;100.00;100496.66;6320667;22;44897;-87
2022/05/24 06:41:04;;;;;;;;;1.00;1.00;;;;;13.11;100.00;100506.53;6318905;22;44637;-88
2022/05/24 06:43:29;;;;;;;;;0.40;0.40;;;;;13.24;100.00;100504.56;6318020;22;45305;-87
2022/05/24 06:45:55;;;;;;;;;0.25;0.25;;;;;13.34;100.00;100496.66;6289239;22;44885;-86
2022/05/24 06:48:20;;;;;;;;;3.00;1.00;;;;;13.43;100.00;100511.91;6320662;22;44961;-88
2022/05/24 06:50:45;;;;;;;;;1.00;1.00;;;;;13.60;100.00;100508.72;6316833;22;44741;-86
2022/05/24 06:53:11;;;;;;;;;0.75;0.75;;;;;13.58;100.00;100515.13;6317511;22;45218;-89
2022/05/24 06:55:37;;;;;;;;;1.00;1.00;;;;;13.75;100.00;100519.09;6311055;22;45381;-88
2022/05/24 06:58:03;;;;;;;;;1.00;1.00;;;;;13.82;100.00;100518.44;6309754;22;45317;-89
2022/05/24 07:03:15;;;;;;;;;0.40;0.40;;;;;14.01;100.00;100517.72;6309505;22;44727;-86
2022/05/24 07:05:42;;;;;;;;;1.00;1.00;;;;;13.87;100.00;100523.38;6312636;22;45111;-85
2022/05/24 07:08:08;;;;;;;;;0.80;0.80;;;;;14.03;100.00;100525.63;6312550;22;45044;-85
2022/05/24 07:10:35;;;;;;;;;1.80;1.00;;;;;14.24;100.00;100528.28;6294572;22;44810;-83
2022/05/24 07:13:08;;;;;;;;;2.00;0.60;;;;;14.28;100.00;100525.22;6283009;22;44734;-85
2022/05/24 07:15:34;;;;;;;;;0.60;0.60;;;;;14.70;100.00;100527.00;6282119;22;44749;-83
2022/05/24 07:18:01;;;;;;;;;0.20;0.20;;;;;14.39;100.00;100529.63;6286673;22;46699;-82
2022/05/24 07:20:27;;;;;;;;;0.00;0.00;;;;;14.08;100.00;100521.59;6310792;22;44784;-85
2022/05/24 07:22:54;;;;;;;;;2.20;0.00;;;;;14.13;100.00;100545.22;6308835;22;44705;-85
2022/05/24 07:25:20;;;;;;;;;2.00;0.60;;;;;14.18;100.00;100529.66;6281080;22;45439;-85
2022/05/24 07:27:46;;;;;;;;;1.00;1.00;;;;;14.57;100.00;100544.13;6313876;22;45329;-82
2022/05/24 07:30:11;;;;;;;;;0.75;0.75;;;;;14.56;100.00;100542.44;6315695;22;44759;-83
2022/05/24 07:32:37;;;;;;;;;3.00;1.50;;;;;14.46;100.00;100544.19;6316315;22;45235;-84
2022/05/24 07:35:05;;;;;;;;;0.75;0.00;;;;;14.46;100.00;100533.47;6319250;22;45488;-83
2022/05/24 07:37:31;;;;;;;;;0.00;0.00;;;;;14.23;100.00;100546.16;6322567;22;45244;-83
2022/05/24 07:48:09;;;;;;;;;0.00;0.00;;;;;14.50;100.00;100532.25;6310439;22;45015;-84
2022/05/24 07:50:35;;;;;;;;;1.00;0.80;;;;;14.79;100.00;100539.56;6282905;22;45291;-84
2022/05/24 07:53:00;;;;;;;;;0.80;0.80;;;;;14.87;100.00;100529.03;6310227;22;45379;-83
2022/05/24 07:55:26;;;;;;;;;0.00;0.00;;;;;14.81;100.00;100530.44;6310876;22;44769;-83
2022/05/24 07:57:51;;;;;;;;;2.00;1.00;;;;;15.03;100.00;100532.03;6310225;22;45084;-83
2022/05/24 08:00:17;;;;;;;;;1.00;1.00;;;;;15.08;100.00;100551.19;6308752;22;44946;-84
2022/05/24 08:02:42;;;;;;;;;1.00;1.00;;;;;14.73;100.00;100550.78;6279766;22;44818;-84
2022/05/24 08:05:09;;;;;;;;;0.75;0.00;;;;;14.75;100.00;100544.34;6310007;22;44824;-85
2022/05/24 08:07:35;;;;;;;;;1.00;1.00;;;;;14.79;100.00;100550.25;6314298;22;46180;-84
2022/05/24 08:10:00;;;;;;;;;1.00;0.75;;;;;14.96;100.00;100552.31;6305734;22;45162;-82
2022/05/24 08:12:26;;;;;;;;;3.00;0.00;;;;;15.25;100.00;100540.84;6308190;22;44738;-82
2022/05/24 08:14:52;;;;;;;;;1.50;0.75;;;;;15.56;100.00;100534.38;6310988;22;44831;-82
2022/05/24 08:17:17;;;;;;;;;0.80;0.80;;;;;15.83;100.00;100543.59;6313448;22;45148;-82
2022/05/24 08:19:43;;;;;;;;;1.00;1.00;;;;;15.59;100.00;100542.16;6317510;22;45140;-82
2022/05/24 08:22:08;;;;;;;;;1.25;1.00;;;;;15.48;100.00;100550.31;6314828;22;44702;-83
2022/05/24 08:24:34;;;;;;;;;0.00;0.00;;;;;15.52;100.00;100537.47;6285949;22;45395;-83
2022/05/24 08:26:59;;;;;;;;;0.00;0.00;;;;;15.73;100.00;100534.72;6316042;22;45003;-83
2022/05/24 08:29:25;;;;;;;;;0.50;0.25;;;;;15.58;100.00;100536.94;6312067;22;45307;-84
2022/05/24 08:31:50;;;;;;;;;0.00;0.00;;;;;15.79;100.00;100537.69;6312171;22;45079;-82
2022/05/24 08:34:16;;;;;;;;;1.00;0.00;;;;;15.64;100.00;100541.78;6283960;22;44836;-83
2022/05/24 08:36:41;;;;;;;;;0.00;0.00;;;;;15.80;100.00;100546.56;6311845;22;45332;-83
2022/05/24 08:39:06;;;;;;;;;1.00;1.00;;;;;16.18;100.00;100545.69;6306230;22;45380;-84
2022/05/24 08:41:41;;;;;;;;;1.75;0.00;;;;;16.04;100.00;100544.28;6309803;22;45323;-84
2022/05/24 08:50:20;;;;;;;;;0.80;0.80;;;;;15.56;100.00;100547.78;6246716;22;45379;-85
2022/05/24 08:52:57;;;;;;;;;2.20;0.80;;;;;15.38;100.00;100546.78;6312988;22;44855;-85
2022/05/24 08:55:23;;;;;;;;;0.00;0.00;;;;;15.10;100.00;100556.44;6281768;22;45014;-85
2022/05/24 08:57:58;;;;;;;;;0.00;0.00;;;;;14.91;100.00;100554.53;6314474;22;45415;-83
2022/05/24 09:00:36;;;;;;;;;0.40;0.40;;;;;15.12;100.00;100555.31;6315175;22;44847;-85
2022/05/24 09:03:07;;;;;;;;;2.00;1.00;;;;;15.07;100.00;100552.19;6306991;22;44694;-84
2022/05/24 09:05:38;;;;;;;;;3.00;1.00;;;;;15.27;100.00;100547.72;6284626;22;45410;-85
2022/05/24 09:08:18;;;;;;;;;0.20;0.00;;;;;15.47;100.00;100537.91;6279735;22;45270;-85
2022/05/24 09:10:56;;;;;;;;;3.00;2.00;;;;;15.91;100.00;100549.97;6309080;22;44772;-85
2022/05/24 09:13:50;;;;;;;;;0.80;0.20;;;;;16.02;100.00;100548.94;6305599;22;45387;-84
2022/05/24 09:16:17;;;;;;;;;1.40;0.60;;;;;16.35;100.00;100547.63;6154902;23;44973;-85
2022/05/24 09:18:45;;;;;;;;;0.60;0.60;;;;;16.67;100.00;100549.94;6130376;23;46646;-85
2022/05/24 09:21:26;;;;;;;;;0.60;0.60;;;;;16.87;100.00;100542.66;6167449;23;44788;-87
2022/05/24 09:24:19;;;;;;;;;1.00;1.00;;;;;17.11;100.00;100547.50;6162032;23;44830;-87
2022/05/24 09:27:06;;;;;;;;;0.60;0.60;;;;;17.15;100.00;100551.56;6133158;23;44870;-88
2022/05/24 09:29:36;;;;;;;;;4.00;1.00;;;;;17.38;100.00;100551.19;6131532;23;45116;-88
2022/05/24 09:32:08;;;;;;;;;0.00;0.00;;;;;17.80;100.00;100550.63;6157023;23;44725;-87
2022/05/24 09:34:37;;;;;;;;;1.80;0.00;;;;;17.94;100.00;100548.25;6156820;23;44839;-87
2022/05/24 09:37:05;;;;;;;;;2.00;0.00;;;;;18.06;100.00;100550.69;6156070;23;44680;-89
2022/05/24 09:39:35;;;;;;;;;1.00;1.00;;;;;18.01;100.00;100551.13;6158679;23;45039;-87
2022/05/24 09:42:11;;;;;;;;;1.40;0.00;;;;;17.62;100.00;100562.19;6165578;23;44684;-88
2022/05/24 09:45:20;;;;;;;;;0.60;0.60;;;;;17.51;100.00;100559.72;6160806;23;45313;-89
2022/05/24 09:47:58;;;;;;;;;2.80;1.00;;;;;17.22;100.00;100557.22;6069256;23;45393;-88
2022/05/24 09:50:35;;;;;;;;;0.40;0.40;;;;;17.22;100.00;100565.28;6075201;23;45535;-87
2022/05/24 09:53:03;;;;;;;;;0.00;0.00;;;;;17.27;100.00;100571.03;6131804;22;44672;-88
2022/05/24 09:55:43;;;;;;;;;0.20;0.00;;;;;17.36;100.00;100562.06;6192540;22;45502;-87
2022/05/24 09:58:17;;;;;;;;;0.00;0.00;;;;;17.12;100.00;100557.28;6196893;22;44893;-85
2022/05/24 10:00:57;;;;;;;;;1.00;0.00;;;;;16.61;100.00;100557.72;6227962;22;45530;-88
2022/05/24 10:03:30;;;;;;;;;1.00;1.00;;;;;16.41;100.00;100559.63;6195169;22;44612;-86
2022/05/24 10:06:22;;;;;;;;;0.20;0.20;;;;;16.48;100.00;100573.28;6219997;22;44683;-88
2022/05/24 10:08:55;;;;;;;;;1.80;0.60;;;;;16.81;100.00;100569.25;6193588;22;44916;-87
2022/05/24 10:11:56;;;;;;;;;1.40;1.00;;;;;16.86;100.00;100567.81;6193807;22;47456;-90
2022/05/24 10:14:30;;;;;;;;;3.00;1.20;;;;;17.18;100.00;100566.56;6219341;22;45239;-86
2022/05/24 10:17:14;;;;;;;;;0.40;0.00;;;;;17.48;100.00;100573.44;6216711;22;44623;-85
2022/05/24 10:19:59;;;;;;;;;0.80;0.00;;;;;17.45;100.00;100574.59;6220495;22;45193;-86
2022/05/24 10:22:36;;;;;;;;;1.60;0.80;;;;;17.39;98.43;100568.97;6222333;22;45051;-86
2022/05/24 10:25:13;;;;;;;;;2.60;1.00;;;;;17.36;100.00;100570.13;6311422;22;45227;-85
2022/05/24 10:27:58;;;;;;;;;1.40;0.40;;;;;16.72;100.00;100578.19;6326419;22;44798;-85
2022/05/24 10:30:27;;;;;;;;;1.60;1.00;;;;;16.41;100.00;100568.50;6324281;22;44623;-85
2022/05/24 10:39:34;;;;;;;;;2.20;0.60;;;;;16.56;100.00;100574.25;6330672;22;44586;-88
2022/05/24 10:42:24;;;;;;;;;1.40;0.60;;;;;16.42;100.00;100572.03;6176545;23;45286;-87
2022/05/24 10:44:59;;;;;;;;;1.00;1.00;;;;;16.53;100.00;100584.41;6149861;23;46486;-88
2022/05/24 10:47:49;;;;;;;;;2.60;1.00;;;;;16.87;100.00;100582.06;6170362;23;45376;-86
2022/05/24 10:50:39;;;;;;;;;5.80;4.40;;;;;16.95;100.00;100584.88;6174623;23;44608;-85
2022/05/24 10:53:11;;;;;;;;;3.60;2.00;;;;;17.03;100.00;100585.00;6143168;23;44820;-86
2022/05/24 10:56:00;;;;;;;;;1.80;0.00;;;;;17.33;100.00;100583.84;6168195;23;45113;-87
2022/05/24 10:58:32;;;;;;;;;1.60;1.00;;;;;17.38;100.00;100576.19;6161793;23;45308;-86
2022/05/24 11:01:23;;;;;;;;;0.60;0.60;;;;;17.53;99.82;100581.03;6159979;23;44846;-86
2022/05/24 11:03:54;;;;;;;;;0.60;0.00;;;;;17.47;99.10;100583.34;6153430;23;44803;-86
2022/05/24 11:06:37;;;;;;;;;1.60;0.40;;;;;16.99;100.00;100588.13;6131092;23;45060;-85
2022/05/24 11:09:09;;;;;;;;;0.80;0.00;;;;;17.07;100.00;100581.03;6134908;23;44678;-84
2022/05/24 11:11:34;;;;;;;;;1.80;0.00;;;;;17.18;100.00;100583.50;6159922;23;44781;-84
2022/05/24 11:14:04;;;;;;;;;1.50;1.00;;;;;17.38;100.00;100580.72;6129197;23;44874;-86
2022/05/24 11:16:42;;;;;;;;;1.00;1.00;;;;;17.18;99.25;100583.50;6152621;23;45027;-85
2022/05/24 11:19:18;;;;;;;;;1.00;1.00;;;;;16.93;100.00;100581.50;6241862;22;44688;-84
2022/05/24 11:22:00;;;;;;;;;1.00;1.00;;;;;17.14;100.00;100586.63;6314095;22;44648;-84
2022/05/24 11:24:50;;;;;;;;;0.00;0.00;;;;;17.61;97.37;100584.66;6314494;22;44789;-83
2022/05/24 11:27:22;;;;;;;;;2.80;1.80;;;;;17.65;98.80;100588.75;6285365;22;45214;-84
2022/05/24 11:29:59;;;;;;;;;0.80;0.60;;;;;17.32;97.11;100579.47;6312879;22;44665;-86
2022/05/24 11:32:33;;;;;;;;;1.00;1.00;;;;;17.36;99.98;100585.41;6283513;22;44691;-85
2022/05/24 11:35:02;;;;;;;;;2.60;1.80;;;;;17.18;100.00;100579.97;6282471;22;45191;-84
2022/05/24 11:37:31;;;;;;;;;4.40;4.40;;;;;17.38;100.00;100586.09;6310991;22;45166;-83
2022/05/24 11:40:36;;;;;;;;;0.00;0.00;;;;;17.61;99.05;100583.81;6309709;22;44734;-84
2022/05/24 11:43:06;;;;;;;;;1.80;1.80;;;;;17.62;98.71;100582.81;6309251;22;44790;-83
2022/05/24 11:46:00;;;;;;;;;1.40;1.40;;;;;17.85;100.00;100580.56;6313017;22;44766;-85
2022/05/24 11:48:42;;;;;;;;;1.00;1.00;;;;;18.35;100.00;100579.97;6312797;22;45433;-83
2022/05/24 11:51:44;;;;;;;;;2.80;0.60;;;;;18.59;100.00;100566.69;6316796;22;44725;-84
2022/05/24 11:54:16;;;;;;;;;2.00;2.00;;;;;18.75;89.72;100576.72;6290307;22;45283;-85
2022/05/24 11:57:03;;;;;;;;;1.00;1.00;;;;;19.35;91.80;100573.97;6313390;22;44773;-85
2022/05/24 12:00:01;;;;;;;;;0.00;0.00;;;;;19.34;87.08;100575.00;6309405;22;45460;-84
2022/05/24 12:02:34;;;;;;;;;0.00;0.00;;;;;19.73;83.00;100575.28;6155736;23;44815;-85
2022/05/24 12:08:24;;;;;;;;;1.40;1.40;;;;;19.46;83.44;100576.38;6161683;23;45483;-84
2022/05/24 12:10:52;;;;;;;;;1.00;0.00;;;;;19.28;84.72;100567.53;6164618;23;45305;-85
2022/05/24 12:13:34;;;;;;;;;1.40;1.00;;;;;19.33;85.44;100567.06;6160971;23;44785;-85
2022/05/24 12:16:03;;;;;;;;;0.20;0.00;;;;;18.87;84.61;100583.53;6167337;23;45358;-86
2022/05/24 12:18:55;;;;;;;;;2.00;1.00;;;;;18.24;84.26;100587.28;6142851;23;44767;-85
2022/05/24 12:21:51;;;;;;;;;1.40;1.00;;;;;18.06;85.08;100582.94;6143249;23;46723;-84